Time;durP1;ratioP1;P1;durP2;ratioP2;P2;SDS_P1;SDS_P2;PMS_P1;PMS_P2;Temp;Humidity;BMP_temperature;BMP_pressure;BME280_temperature;BME280_humidity;BME280_pressure;Samples;Min_cycle;Max_cycle;Signal;HPM_P1;HPM_P2
2023/09/16 00:01:02;;;;;;;22.92;18.13;;;18.40;99.90;;;;;;4956516;29;20023;-91
2023/09/16 00:03:27;;;;;;;27.20;18.85;;;18.40;99.90;;;;;;4958648;28;20038;-92
2023/09/16 00:05:53;;;;;;;21.48;17.90;;;19.00;99.90;;;;;;4957438;29;20058;-93
2023/09/16 00:08:18;;;;;;;19.63;17.50;;;18.30;99.90;;;;;;4976115;28;20023;-91
2023/09/16 00:10:44;;;;;;;20.42;18.33;;;18.40;99.90;;;;;;4976636;28;20030;-92
2023/09/16 00:13:09;;;;;;;18.05;16.05;;;18.40;99.90;;;;;;4975990;28;20042;-93
2023/09/16 00:15:35;;;;;;;27.33;17.48;;;18.30;99.90;;;;;;4968028;28;20027;-93
2023/09/16 00:18:01;;;;;;;23.52;17.10;;;18.30;99.90;;;;;;4979951;28;20019;-92
2023/09/16 00:20:28;;;;;;;20.88;16.63;;;18.50;99.90;;;;;;4980150;28;20003;-93
2023/09/16 00:22:53;;;;;;;19.90;16.90;;;18.20;99.90;;;;;;4979716;28;20015;-91
2023/09/16 00:25:19;;;;;;;21.52;16.92;;;18.20;99.90;;;;;;4976696;28;20085;-92
2023/09/16 00:27:45;;;;;;;23.60;17.83;;;18.40;99.90;;;;;;4973322;28;20061;-92
2023/09/16 00:30:11;;;;;;;19.50;15.82;;;18.40;99.90;;;;;;4974354;28;20037;-91
2023/09/16 00:32:37;;;;;;;33.03;17.77;;;18.20;99.90;;;;;;4976344;28;20122;-92
2023/09/16 00:35:04;;;;;;;22.27;16.95;;;18.80;99.90;;;;;;4972351;28;20396;-92
2023/09/16 00:37:29;;;;;;;20.50;17.45;;;18.20;99.90;;;;;;4976038;28;20090;-93
2023/09/16 00:39:58;;;;;;;23.20;17.00;;;19.10;99.90;;;;;;4977910;28;20461;-92
2023/09/16 00:42:23;;;;;;;18.52;16.63;;;18.20;99.90;;;;;;4976714;28;20065;-92
2023/09/16 00:44:50;;;;;;;21.73;18.23;;;18.20;99.90;;;;;;4968434;28;20055;-91
2023/09/16 00:47:16;;;;;;;23.10;17.65;;;18.20;99.90;;;;;;4956740;29;20057;-91
2023/09/16 00:49:43;;;;;;;23.13;16.23;;;18.20;99.90;;;;;;4963540;28;20027;-92
2023/09/16 00:52:10;;;;;;;22.70;17.33;;;18.40;99.90;;;;;;4956874;29;20101;-92
2023/09/16 00:54:36;;;;;;;21.40;17.55;;;18.80;99.90;;;;;;4956551;29;20042;-91
2023/09/16 00:57:02;;;;;;;21.70;17.75;;;18.70;99.90;;;;;;4956608;29;20035;-93
2023/09/16 00:59:32;;;;;;;21.70;17.02;;;18.20;99.90;;;;;;4956400;29;20035;-94
2023/09/16 01:01:59;;;;;;;19.80;16.70;;;18.30;99.90;;;;;;4957252;29;20025;-91
2023/09/16 01:04:25;;;;;;;21.58;17.02;;;18.20;99.90;;;;;;4960713;29;20066;-91
2023/09/16 01:06:51;;;;;;;18.27;16.17;;;18.20;99.90;;;;;;4957091;28;20037;-91
2023/09/16 01:09:20;;;;;;;18.80;16.67;;;18.30;99.90;;;;;;4956593;29;20110;-90
2023/09/16 01:11:47;;;;;;;20.17;18.07;;;18.40;99.90;;;;;;4975779;28;20039;-92
2023/09/16 01:14:13;;;;;;;20.33;17.30;;;18.30;99.90;;;;;;4972448;28;20259;-92
2023/09/16 01:17:02;;;;;;;19.58;16.45;;;18.70;99.90;;;;;;4958136;29;20043;-92
2023/09/16 01:19:42;;;;;;;21.97;16.40;;;18.20;99.90;;;;;;4955977;29;20375;-92
2023/09/16 01:22:09;;;;;;;17.88;15.93;;;18.20;99.90;;;;;;4963373;28;20020;-91
2023/09/16 01:24:35;;;;;;;20.10;16.67;;;18.90;99.90;;;;;;4978492;28;20036;-91
2023/09/16 01:27:01;;;;;;;19.77;17.02;;;18.20;99.90;;;;;;4977044;28;20022;-92
2023/09/16 01:29:27;;;;;;;19.52;16.85;;;17.90;99.90;;;;;;4964583;28;20025;-91
2023/09/16 01:31:56;;;;;;;19.13;16.73;;;17.80;99.90;;;;;;4975222;28;20081;-92
2023/09/16 01:34:44;;;;;;;20.60;16.80;;;18.30;99.90;;;;;;4965243;28;20020;-91
2023/09/16 01:37:13;;;;;;;20.33;17.40;;;17.80;99.90;;;;;;4961630;29;20062;-91
2023/09/16 01:39:40;;;;;;;20.15;17.88;;;17.70;99.90;;;;;;4963494;29;20023;-92
2023/09/16 01:42:07;;;;;;;18.73;16.70;;;17.60;99.90;;;;;;4959696;29;20094;-91
2023/09/16 01:44:32;;;;;;;16.55;15.00;;;17.60;99.90;;;;;;4963715;28;20037;-91
2023/09/16 01:46:58;;;;;;;18.67;15.68;;;17.70;99.90;;;;;;4979663;28;20105;-93
2023/09/16 01:49:24;;;;;;;20.23;16.40;;;18.00;99.90;;;;;;4978806;28;20457;-93
2023/09/16 01:51:50;;;;;;;17.42;15.57;;;17.60;99.90;;;;;;4979309;28;20027;-92
2023/09/16 01:54:15;;;;;;;18.40;16.23;;;17.60;99.90;;;;;;4972571;28;20039;-92
2023/09/16 01:56:44;;;;;;;18.08;15.68;;;17.60;99.90;;;;;;4960331;29;20432;-92
2023/09/16 01:59:10;;;;;;;21.50;15.80;;;17.60;99.90;;;;;;4961111;29;20107;-93
2023/09/16 02:01:35;;;;;;;18.17;15.18;;;18.20;99.90;;;;;;4965151;29;20039;-92
2023/09/16 02:04:01;;;;;;;18.83;15.27;;;17.70;99.90;;;;;;4968674;29;20091;-92
2023/09/16 02:06:32;;;;;;;16.90;15.15;;;17.60;99.90;;;;;;4982462;28;20010;-92
2023/09/16 02:08:58;;;;;;;17.65;16.00;;;17.60;99.90;;;;;;4979314;29;20015;-92
2023/09/16 02:11:23;;;;;;;17.95;16.15;;;17.80;99.90;;;;;;4962710;29;20023;-92
2023/09/16 02:13:49;;;;;;;21.67;15.85;;;18.30;99.90;;;;;;4962920;28;20063;-92
2023/09/16 02:16:14;;;;;;;17.30;15.35;;;17.80;99.90;;;;;;4959675;29;20031;-92
2023/09/16 02:18:40;;;;;;;16.77;15.10;;;17.60;99.90;;;;;;4978240;28;20041;-92
2023/09/16 02:21:07;;;;;;;20.60;15.90;;;18.30;99.90;;;;;;4979015;28;20034;-91
2023/09/16 02:23:34;;;;;;;17.80;15.85;;;18.20;99.90;;;;;;4970785;28;20051;-92
2023/09/16 02:26:02;;;;;;;19.33;16.40;;;17.20;99.90;;;;;;4974692;28;20016;-92
2023/09/16 02:28:28;;;;;;;17.25;15.45;;;17.30;99.90;;;;;;4982535;28;20011;-93
2023/09/16 02:30:54;;;;;;;19.33;15.20;;;17.10;99.90;;;;;;4976579;28;20055;-93
2023/09/16 02:33:20;;;;;;;16.58;14.82;;;17.80;99.90;;;;;;4969676;28;20030;-92
2023/09/16 02:35:46;;;;;;;18.13;15.38;;;17.20;99.90;;;;;;4973888;28;20032;-93
2023/09/16 02:38:12;;;;;;;19.90;15.38;;;17.30;99.90;;;;;;4974806;28;20494;-93
2023/09/16 02:40:41;;;;;;;16.95;15.20;;;17.30;99.90;;;;;;4978321;28;20027;-91
2023/09/16 02:43:09;;;;;;;18.05;16.13;;;17.30;99.90;;;;;;4977660;28;20471;-91
2023/09/16 02:45:41;;;;;;;17.92;15.90;;;17.60;99.90;;;;;;4977236;28;20037;-92
2023/09/16 02:48:07;;;;;;;20.10;15.73;;;17.30;99.90;;;;;;4978334;28;20058;-91
2023/09/16 02:50:38;;;;;;;17.60;15.85;;;17.30;99.90;;;;;;4977676;28;20027;-91
2023/09/16 02:53:04;;;;;;;20.95;15.75;;;17.50;99.90;;;;;;4978248;28;20507;-91
2023/09/16 02:55:31;;;;;;;18.45;15.75;;;17.50;99.90;;;;;;4961867;28;20040;-92
2023/09/16 02:57:59;;;;;;;18.80;16.83;;;17.30;99.90;;;;;;4969220;28;20039;-91
2023/09/16 03:00:25;;;;;;;20.23;16.20;;;17.20;99.90;;;;;;4973832;28;20015;-91
2023/09/16 03:02:51;;;;;;;18.02;16.10;;;17.20;99.90;;;;;;4981430;28;20015;-93
2023/09/16 03:05:16;;;;;;;17.67;15.77;;;17.20;99.90;;;;;;4965110;28;20031;-92
2023/09/16 03:07:44;;;;;;;21.02;16.95;;;17.40;99.90;;;;;;4958151;29;20034;-90
2023/09/16 03:10:10;;;;;;;19.13;16.17;;;17.20;99.90;;;;;;4957966;29;20054;-91
2023/09/16 03:12:35;;;;;;;17.60;15.75;;;17.20;99.90;;;;;;4957938;29;20487;-89
2023/09/16 03:15:01;;;;;;;19.05;17.15;;;17.10;99.90;;;;;;4958146;29;20030;-91
2023/09/16 03:17:26;;;;;;;18.33;16.33;;;17.10;99.90;;;;;;4958312;29;20070;-90
2023/09/16 03:19:52;;;;;;;18.45;16.42;;;17.60;99.90;;;;;;4960321;29;20028;-91
2023/09/16 03:22:18;;;;;;;20.88;15.23;;;17.60;99.90;;;;;;4972738;28;20027;-90
2023/09/16 03:24:43;;;;;;;19.13;15.15;;;17.10;99.90;;;;;;4970025;28;20023;-92
2023/09/16 03:27:09;;;;;;;18.30;15.43;;;17.00;99.90;;;;;;4967763;29;20043;-92
2023/09/16 03:29:35;;;;;;;20.85;15.82;;;16.90;99.90;;;;;;4976029;28;20166;-91
2023/09/16 03:32:00;;;;;;;16.02;14.52;;;17.00;99.90;;;;;;4978313;28;20082;-93
2023/09/16 03:34:26;;;;;;;16.33;14.63;;;17.00;99.90;;;;;;4974416;28;20107;-92
2023/09/16 03:36:52;;;;;;;16.45;14.75;;;16.90;99.90;;;;;;4967460;28;20439;-92
2023/09/16 03:39:17;;;;;;;17.45;15.70;;;16.80;99.90;;;;;;4972822;28;20435;-92
2023/09/16 03:41:43;;;;;;;17.45;15.57;;;16.90;99.90;;;;;;4957900;29;20349;-93
2023/09/16 03:44:10;;;;;;;19.38;16.00;;;16.80;99.90;;;;;;4962263;28;20023;-92
2023/09/16 03:46:35;;;;;;;17.25;15.45;;;16.60;99.90;;;;;;4961961;28;20043;-92
2023/09/16 03:49:01;;;;;;;19.05;16.00;;;16.60;99.90;;;;;;4976892;28;20034;-92
2023/09/16 03:51:27;;;;;;;18.35;16.33;;;16.60;99.90;;;;;;4975491;28;20023;-93
2023/09/16 03:53:53;;;;;;;23.25;15.93;;;16.70;99.90;;;;;;4968032;28;20019;-93
2023/09/16 03:56:19;;;;;;;17.63;14.77;;;17.60;99.90;;;;;;4996426;28;20011;-90
2023/09/16 03:58:44;;;;;;;20.65;15.93;;;16.80;99.90;;;;;;4991172;28;20513;-91
2023/09/16 04:01:10;;;;;;;17.00;15.30;;;16.80;99.90;;;;;;4972309;28;20098;-92
2023/09/16 04:03:36;;;;;;;18.38;16.08;;;16.80;99.90;;;;;;4958827;28;20447;-90
2023/09/16 04:06:03;;;;;;;17.73;15.93;;;16.90;99.90;;;;;;4958563;28;20031;-92
2023/09/16 04:08:29;;;;;;;18.42;16.60;;;16.90;99.90;;;;;;4970848;28;20493;-92
2023/09/16 04:10:56;;;;;;;18.98;15.85;;;16.70;99.90;;;;;;4976518;28;20035;-92
2023/09/16 04:13:22;;;;;;;20.02;16.33;;;16.70;99.90;;;;;;4970675;28;20035;-92
2023/09/16 04:15:48;;;;;;;21.98;17.08;;;16.70;99.90;;;;;;4969163;28;20039;-93
2023/09/16 04:18:14;;;;;;;19.67;17.08;;;16.70;99.90;;;;;;4976705;28;20035;-90
2023/09/16 04:20:40;;;;;;;20.15;15.85;;;16.80;99.90;;;;;;4974080;28;20019;-92
2023/09/16 04:23:05;;;;;;;18.77;16.77;;;17.10;99.90;;;;;;4975917;28;20479;-92
2023/09/16 04:25:31;;;;;;;18.58;16.50;;;16.80;99.90;;;;;;4962305;28;20024;-92
2023/09/16 04:27:57;;;;;;;20.35;16.65;;;16.80;99.90;;;;;;4958003;29;20039;-92
2023/09/16 04:30:23;;;;;;;18.42;16.45;;;16.70;99.90;;;;;;4965194;28;20061;-91
2023/09/16 04:32:48;;;;;;;19.25;17.10;;;16.70;99.90;;;;;;4998480;28;20067;-91
2023/09/16 04:35:14;;;;;;;23.55;16.65;;;16.80;99.90;;;;;;4995342;28;20023;-92
2023/09/16 04:37:40;;;;;;;21.75;17.65;;;16.60;99.90;;;;;;4962007;28;20043;-92
2023/09/16 04:40:12;;;;;;;23.20;18.80;;;16.60;99.90;;;;;;4963336;28;20407;-93
2023/09/16 04:42:38;;;;;;;23.30;17.35;;;16.50;99.90;;;;;;4956687;29;20027;-93
2023/09/16 04:45:05;;;;;;;19.98;17.02;;;16.50;99.90;;;;;;4956791;29;20102;-92
2023/09/16 04:47:31;;;;;;;20.23;17.95;;;16.50;99.90;;;;;;4960353;28;20062;-93
2023/09/16 04:49:57;;;;;;;20.42;18.27;;;16.50;99.90;;;;;;4974233;28;20028;-91
2023/09/16 04:52:25;;;;;;;21.13;18.60;;;16.40;99.90;;;;;;4979472;28;20017;-93
2023/09/16 04:54:54;;;;;;;20.98;18.30;;;16.40;99.90;;;;;;4960070;29;20074;-92
2023/09/16 04:57:23;;;;;;;24.10;18.45;;;16.40;99.90;;;;;;4956635;29;20059;-92
2023/09/16 04:59:48;;;;;;;20.08;17.58;;;16.30;99.90;;;;;;4956351;29;20083;-92
2023/09/16 05:02:14;;;;;;;20.70;18.38;;;16.50;99.90;;;;;;4964785;28;20034;-92
2023/09/16 05:04:39;;;;;;;17.90;16.02;;;16.10;99.90;;;;;;4968958;28;20019;-91
2023/09/16 05:07:06;;;;;;;19.83;16.55;;;16.30;99.90;;;;;;4958401;28;20069;-92
2023/09/16 05:09:31;;;;;;;20.25;16.00;;;16.20;99.90;;;;;;4956160;29;20085;-90
2023/09/16 05:11:57;;;;;;;19.92;17.65;;;16.20;99.90;;;;;;4963471;28;20058;-92
2023/09/16 05:14:26;;;;;;;17.65;15.93;;;16.20;99.90;;;;;;4975713;28;20080;-93
2023/09/16 05:16:51;;;;;;;20.23;17.77;;;16.40;99.90;;;;;;4971652;28;20041;-93
2023/09/16 05:19:17;;;;;;;22.85;16.90;;;16.10;99.90;;;;;;4966436;29;20031;-94
2023/09/16 05:21:42;;;;;;;18.45;16.42;;;16.20;99.90;;;;;;4969573;29;20027;-93
2023/09/16 05:24:08;;;;;;;18.52;15.90;;;16.10;99.90;;;;;;4974211;28;20063;-93
2023/09/16 05:26:34;;;;;;;20.25;16.60;;;16.60;99.90;;;;;;4974234;28;20027;-93
2023/09/16 05:29:00;;;;;;;21.10;16.88;;;16.00;99.90;;;;;;4983257;28;20034;-94
2023/09/16 05:31:28;;;;;;;17.67;15.70;;;15.90;99.90;;;;;;4982583;28;20058;-93
2023/09/16 05:33:53;;;;;;;17.08;15.50;;;16.00;99.90;;;;;;4972582;28;20349;-93
2023/09/16 05:36:24;;;;;;;16.90;15.23;;;16.10;99.90;;;;;;4997004;28;20370;-93
2023/09/16 05:38:49;;;;;;;16.35;14.65;;;16.00;99.90;;;;;;4997912;28;20078;-93
2023/09/16 05:41:16;;;;;;;17.77;15.98;;;15.90;99.90;;;;;;4987759;28;20046;-94
2023/09/16 05:43:42;;;;;;;16.80;14.88;;;16.00;99.90;;;;;;4980571;28;20020;-94
2023/09/16 05:46:07;;;;;;;19.67;16.42;;;15.90;99.90;;;;;;4978918;28;20087;-93
2023/09/16 05:48:33;;;;;;;19.30;15.30;;;16.30;99.90;;;;;;4972455;28;20032;-93
2023/09/16 05:50:59;;;;;;;17.98;16.10;;;15.80;99.90;;;;;;4959117;29;20110;-92
2023/09/16 05:53:26;;;;;;;17.38;15.40;;;15.90;99.90;;;;;;4966304;28;20027;-90
2023/09/16 05:55:53;;;;;;;19.33;16.13;;;15.90;99.90;;;;;;4957787;28;20035;-90
2023/09/16 05:58:19;;;;;;;17.23;15.02;;;15.90;99.90;;;;;;4961979;28;20126;-89
2023/09/16 06:00:53;;;;;;;18.75;16.83;;;16.00;99.90;;;;;;4954987;29;20058;-90
2023/09/16 06:03:19;;;;;;;17.70;15.93;;;16.00;99.90;;;;;;4956154;29;20038;-89
2023/09/16 06:05:45;;;;;;;17.27;15.45;;;16.00;99.90;;;;;;4956886;28;20027;-88
2023/09/16 06:08:10;;;;;;;18.05;16.33;;;16.00;99.90;;;;;;4953799;29;20467;-90
2023/09/16 06:10:36;;;;;;;23.35;18.70;;;16.00;99.90;;;;;;4958582;28;20110;-90
2023/09/16 06:13:01;;;;;;;24.15;16.83;;;16.10;99.90;;;;;;4964734;28;20095;-90
2023/09/16 06:15:27;;;;;;;21.45;17.13;;;16.10;99.90;;;;;;4970942;28;20464;-89
2023/09/16 06:17:53;;;;;;;22.52;18.38;;;16.40;99.90;;;;;;4972212;28;20398;-89
2023/09/16 06:20:18;;;;;;;21.08;17.70;;;16.00;99.90;;;;;;4973785;28;20106;-89
2023/09/16 06:22:44;;;;;;;19.63;17.63;;;16.10;99.90;;;;;;4971736;28;20491;-90
2023/09/16 06:25:09;;;;;;;20.02;17.48;;;16.10;99.90;;;;;;4967163;28;20226;-88
2023/09/16 06:27:35;;;;;;;20.77;18.65;;;16.30;99.90;;;;;;4975318;28;20035;-90
2023/09/16 06:30:01;;;;;;;21.50;19.30;;;16.20;99.90;;;;;;4964682;28;20047;-89
2023/09/16 06:32:26;;;;;;;20.58;18.40;;;16.20;99.90;;;;;;4968851;28;20137;-89
2023/09/16 06:34:52;;;;;;;25.30;18.95;;;16.30;99.90;;;;;;4977480;28;20027;-89
2023/09/16 06:37:17;;;;;;;20.85;18.08;;;16.20;99.90;;;;;;4982218;28;20041;-89
2023/09/16 06:39:45;;;;;;;22.52;20.17;;;16.20;99.90;;;;;;4991692;28;20031;-92
2023/09/16 06:42:11;;;;;;;23.92;20.38;;;16.30;99.90;;;;;;4990995;28;20113;-89
2023/09/16 06:44:36;;;;;;;22.85;20.35;;;16.30;99.90;;;;;;4958892;28;20519;-89
2023/09/16 06:47:02;;;;;;;22.95;20.55;;;16.50;99.90;;;;;;4959805;29;20039;-88
2023/09/16 06:49:28;;;;;;;23.55;20.17;;;16.40;99.90;;;;;;4973316;28;20034;-90
2023/09/16 06:51:53;;;;;;;22.20;19.95;;;16.40;99.90;;;;;;4964390;28;20027;-83
2023/09/16 06:54:19;;;;;;;23.02;20.55;;;16.50;99.90;;;;;;4974601;28;20074;-92
2023/09/16 06:56:44;;;;;;;22.65;19.70;;;16.60;99.90;;;;;;4963109;28;20479;-91
2023/09/16 06:59:10;;;;;;;24.13;20.13;;;16.60;99.90;;;;;;4970032;28;20029;-90
2023/09/16 07:01:36;;;;;;;29.70;20.85;;;16.70;99.90;;;;;;4971921;28;20031;-91
2023/09/16 07:04:01;;;;;;;24.88;22.10;;;16.80;99.90;;;;;;4958851;28;20023;-90
2023/09/16 07:06:34;;;;;;;25.10;21.63;;;16.80;99.90;;;;;;4971009;28;20031;-94
2023/09/16 07:08:59;;;;;;;30.88;22.42;;;16.90;99.90;;;;;;4965347;28;20027;-94
2023/09/16 07:11:25;;;;;;;26.73;22.45;;;16.90;99.90;;;;;;4965185;28;20098;-90
2023/09/16 07:13:52;;;;;;;25.67;20.80;;;16.90;99.90;;;;;;4966379;28;20407;-94
2023/09/16 07:16:19;;;;;;;23.48;21.05;;;17.00;99.90;;;;;;4970595;28;20030;-92
2023/09/16 07:18:45;;;;;;;26.33;22.20;;;17.00;99.90;;;;;;4977442;28;20403;-90
2023/09/16 07:21:10;;;;;;;26.45;21.25;;;17.10;99.90;;;;;;4977407;28;20031;-92
2023/09/16 07:23:36;;;;;;;30.25;22.58;;;17.10;99.90;;;;;;4984981;28;20031;-92
2023/09/16 07:26:02;;;;;;;23.48;20.90;;;17.20;99.90;;;;;;4983513;28;20031;-93
2023/09/16 07:28:28;;;;;;;26.50;20.98;;;17.20;99.90;;;;;;4992915;28;20268;-89
2023/09/16 07:30:54;;;;;;;22.60;20.20;;;17.30;99.90;;;;;;4968283;28;20066;-88
2023/09/16 07:33:20;;;;;;;24.90;21.33;;;17.40;99.90;;;;;;4989948;28;20043;-86
2023/09/16 07:35:46;;;;;;;24.17;21.77;;;17.80;99.90;;;;;;4968273;28;20039;-92
2023/09/16 07:38:11;;;;;;;26.92;22.45;;;17.40;99.90;;;;;;4957989;29;20490;-91
2023/09/16 07:40:38;;;;;;;29.10;21.92;;;17.50;99.90;;;;;;4976049;28;20501;-91
2023/09/16 07:43:11;;;;;;;25.98;21.63;;;17.50;99.90;;;;;;4988419;28;20016;-89
2023/09/16 07:45:38;;;;;;;24.08;21.48;;;17.40;99.90;;;;;;4961285;28;20031;-90
2023/09/16 07:48:04;;;;;;;23.63;21.13;;;17.60;99.90;;;;;;4963945;28;20031;-92
2023/09/16 07:50:29;;;;;;;24.00;19.75;;;17.60;99.90;;;;;;4956675;29;20034;-91
2023/09/16 07:52:55;;;;;;;25.77;21.70;;;17.60;99.90;;;;;;4962719;28;20125;-90
2023/09/16 07:55:20;;;;;;;27.60;21.80;;;17.60;99.90;;;;;;4961780;28;20028;-89
2023/09/16 07:57:46;;;;;;;24.88;20.40;;;18.00;99.90;;;;;;4962472;28;20101;-87
2023/09/16 08:00:13;;;;;;;21.50;19.05;;;17.70;99.90;;;;;;4956101;29;20023;-89
2023/09/16 08:02:39;;;;;;;21.45;19.20;;;17.80;99.90;;;;;;4971696;28;20054;-88
2023/09/16 08:05:04;;;;;;;19.25;17.20;;;17.90;99.90;;;;;;4974389;28;20046;-88
2023/09/16 08:07:30;;;;;;;22.50;18.00;;;17.90;99.90;;;;;;4972228;28;20509;-86
2023/09/16 08:09:58;;;;;;;20.60;18.17;;;17.80;99.90;;;;;;4974391;28;20106;-86
2023/09/16 08:12:23;;;;;;;21.33;18.25;;;18.00;99.90;;;;;;4973724;28;20037;-86
2023/09/16 08:14:49;;;;;;;22.63;18.83;;;18.90;99.90;;;;;;4970843;28;20101;-86
2023/09/16 08:17:16;;;;;;;20.58;18.42;;;18.00;99.90;;;;;;4973153;28;20039;-87
2023/09/16 08:19:41;;;;;;;19.48;17.45;;;18.70;99.90;;;;;;4973752;28;20027;-87
2023/09/16 08:22:07;;;;;;;20.38;18.17;;;18.30;99.90;;;;;;4973298;28;20074;-86
2023/09/16 08:24:34;;;;;;;19.85;17.90;;;18.10;99.90;;;;;;4972688;28;20078;-86
2023/09/16 08:27:00;;;;;;;19.50;16.98;;;18.10;99.90;;;;;;4978266;28;20062;-85
2023/09/16 08:29:25;;;;;;;21.40;18.38;;;18.50;99.90;;;;;;4987291;28;20039;-85
2023/09/16 08:31:51;;;;;;;22.33;19.42;;;18.20;99.90;;;;;;4974921;28;20415;-85
2023/09/16 08:34:16;;;;;;;19.17;17.08;;;19.20;99.90;;;;;;4965940;28;20031;-86
2023/09/16 08:36:42;;;;;;;20.15;17.00;;;18.40;99.90;;;;;;4974726;28;20058;-90
2023/09/16 08:39:07;;;;;;;19.05;17.13;;;18.30;99.90;;;;;;4976446;28;20534;-91
2023/09/16 08:41:59;;;;;;;23.90;18.67;;;18.60;99.90;;;;;;4975381;28;20035;-92
2023/09/16 08:44:28;;;;;;;20.25;18.25;;;18.40;99.90;;;;;;4974476;28;20114;-89
2023/09/16 08:47:03;;;;;;;20.80;18.58;;;18.50;99.90;;;;;;4976406;29;20110;-93
2023/09/16 08:49:33;;;;;;;21.67;18.98;;;18.70;99.90;;;;;;4974405;28;20041;-90
2023/09/16 08:52:01;;;;;;;18.75;16.73;;;18.70;99.90;;;;;;4960934;28;20598;-89
2023/09/16 08:54:29;;;;;;;21.73;17.65;;;18.60;99.90;;;;;;4958415;28;20042;-86
2023/09/16 08:56:57;;;;;;;21.30;18.30;;;18.60;99.90;;;;;;4956347;28;20062;-86
2023/09/16 08:59:23;;;;;;;19.75;17.65;;;18.70;99.90;;;;;;4962211;28;20119;-77
2023/09/16 09:01:49;;;;;;;25.98;17.30;;;18.80;99.90;;;;;;4967995;28;20031;-78
2023/09/16 09:04:15;;;;;;;17.63;15.68;;;18.80;99.90;;;;;;4969372;28;20435;-79
2023/09/16 09:06:41;;;;;;;16.50;14.57;;;18.90;99.90;;;;;;4961435;28;20027;-78
2023/09/16 09:09:07;;;;;;;16.67;15.00;;;18.90;99.90;;;;;;4960959;28;20061;-78
2023/09/16 09:11:34;;;;;;;17.25;15.48;;;19.00;99.90;;;;;;4966117;28;20032;-78
2023/09/16 09:14:00;;;;;;;16.92;15.20;;;19.00;99.90;;;;;;4972983;28;20499;-78
2023/09/16 09:16:28;;;;;;;15.65;14.15;;;19.10;99.90;;;;;;4970980;28;20505;-88
2023/09/16 09:18:58;;;;;;;18.90;14.93;;;19.20;99.90;;;;;;4973607;28;20046;-93
2023/09/16 09:21:24;;;;;;;17.02;14.82;;;19.20;99.90;;;;;;4985256;28;20030;-92
2023/09/16 09:23:50;;;;;;;19.52;15.52;;;19.30;99.90;;;;;;4978514;28;20075;-91
2023/09/16 09:26:15;;;;;;;18.63;16.23;;;19.30;99.90;;;;;;4976973;28;20031;-93
2023/09/16 09:28:46;;;;;;;16.00;14.35;;;19.40;99.90;;;;;;4975402;28;20027;-92
2023/09/16 09:31:12;;;;;;;16.73;15.02;;;19.40;99.90;;;;;;4974425;28;20530;-91
2023/09/16 09:33:41;;;;;;;15.07;13.45;;;19.50;99.90;;;;;;4975716;28;20038;-91
2023/09/16 09:36:14;;;;;;;19.00;14.77;;;19.60;99.90;;;;;;4970981;28;20030;-92
2023/09/16 09:38:41;;;;;;;16.35;14.65;;;19.60;99.90;;;;;;4961790;28;20035;-91
2023/09/16 09:41:07;;;;;;;16.13;13.73;;;19.60;99.90;;;;;;4976227;28;20459;-92
2023/09/16 09:43:33;;;;;;;13.93;12.45;;;19.70;99.90;;;;;;4975466;28;20035;-91
2023/09/16 09:45:59;;;;;;;14.55;12.43;;;19.90;99.90;;;;;;4965337;28;20026;-91
2023/09/16 09:48:25;;;;;;;12.13;11.00;;;19.90;99.90;;;;;;4981553;28;20022;-91
2023/09/16 09:50:50;;;;;;;10.73;8.95;;;19.90;99.90;;;;;;4975287;28;20035;-91
2023/09/16 09:53:16;;;;;;;9.00;8.10;;;20.00;99.90;;;;;;4978884;28;20085;-93
2023/09/16 09:55:43;;;;;;;9.85;8.85;;;20.10;99.90;;;;;;4973743;28;20816;-93
2023/09/16 09:58:09;;;;;;;11.95;8.88;;;20.20;99.90;;;;;;4979463;28;20038;-92
2023/09/16 10:00:35;;;;;;;10.20;9.25;;;20.30;99.90;;;;;;4980675;28;20068;-92
2023/09/16 10:03:01;;;;;;;10.95;9.43;;;20.40;99.90;;;;;;4979208;28;20113;-94
2023/09/16 10:05:27;;;;;;;8.82;8.02;;;20.50;99.90;;;;;;4965557;28;20378;-92
2023/09/16 10:07:53;;;;;;;8.50;7.53;;;20.40;99.90;;;;;;4978067;28;20027;-92
2023/09/16 10:10:24;;;;;;;7.80;6.68;;;20.50;99.90;;;;;;4977747;28;20034;-93
2023/09/16 10:12:54;;;;;;;11.73;6.55;;;20.60;99.90;;;;;;4970364;28;20039;-91
2023/09/16 10:15:30;;;;;;;6.47;5.90;;;20.60;99.90;;;;;;4963058;29;20023;-81
2023/09/16 10:17:56;;;;;;;6.03;5.50;;;20.70;99.90;;;;;;4973938;28;20174;-82
2023/09/16 10:20:22;;;;;;;7.25;6.38;;;20.70;99.90;;;;;;4974863;28;20435;-83
2023/09/16 10:22:48;;;;;;;6.45;5.85;;;20.80;99.90;;;;;;4957496;28;20027;-80
2023/09/16 10:25:18;;;;;;;7.03;6.32;;;20.90;99.90;;;;;;4964203;28;20523;-79
2023/09/16 10:28:01;;;;;;;6.75;6.07;;;20.80;99.90;;;;;;4955632;29;20035;-80
2023/09/16 10:30:27;;;;;;;8.13;6.18;;;20.90;99.90;;;;;;4969340;28;20038;-83
2023/09/16 10:32:53;;;;;;;6.90;5.40;;;21.00;99.90;;;;;;4959604;28;20103;-83
2023/09/16 10:35:22;;;;;;;6.65;6.10;;;21.00;99.90;;;;;;4956661;28;20038;-83
2023/09/16 10:37:52;;;;;;;6.45;5.82;;;21.10;99.90;;;;;;4956237;29;20051;-83
2023/09/16 10:40:19;;;;;;;10.65;6.22;;;21.20;99.90;;;;;;4969500;28;20031;-82
2023/09/16 10:42:46;;;;;;;7.78;5.60;;;21.20;99.90;;;;;;4973332;28;20098;-82
2023/09/16 10:45:14;;;;;;;6.50;5.32;;;21.20;99.90;;;;;;4963906;28;20026;-84
2023/09/16 10:47:40;;;;;;;11.52;5.75;;;21.20;99.90;;;;;;4968182;28;20031;-83
2023/09/16 10:50:06;;;;;;;6.18;5.00;;;21.30;99.90;;;;;;4965180;28;20031;-82
2023/09/16 10:52:41;;;;;;;5.35;4.85;;;21.40;99.90;;;;;;4958700;28;20114;-82
2023/09/16 10:55:19;;;;;;;5.78;5.22;;;21.40;99.90;;;;;;4971550;28;20022;-82
2023/09/16 10:58:09;;;;;;;6.10;5.00;;;21.40;99.90;;;;;;4970386;28;20039;-82
2023/09/16 11:00:44;;;;;;;6.30;5.00;;;21.50;99.90;;;;;;4966529;28;20031;-81
2023/09/16 11:03:15;;;;;;;7.75;4.97;;;21.50;99.90;;;;;;4959187;28;20608;-80
2023/09/16 11:05:41;;;;;;;7.57;4.93;;;21.60;99.90;;;;;;4965537;28;20053;-81
2023/09/16 11:08:07;;;;;;;6.82;4.90;;;21.60;99.90;;;;;;4975743;28;20026;-79
2023/09/16 11:10:33;;;;;;;6.38;4.70;;;21.70;99.90;;;;;;4977889;28;20095;-80
2023/09/16 11:13:00;;;;;;;6.28;3.65;;;21.70;99.90;;;;;;4978324;28;20471;-78
2023/09/16 11:15:33;;;;;;;5.78;3.92;;;21.80;99.90;;;;;;4975241;28;20093;-79
2023/09/16 11:18:08;;;;;;;5.57;4.00;;;21.70;99.90;;;;;;4961713;28;20043;-86
2023/09/16 11:20:36;;;;;;;3.50;3.20;;;21.80;99.90;;;;;;4965216;28;20117;-80
2023/09/16 11:23:05;;;;;;;10.55;3.25;;;21.90;99.90;;;;;;4968056;28;20034;-84
2023/09/16 11:25:36;;;;;;;11.32;3.50;;;22.00;99.90;;;;;;4962151;28;20027;-83
2023/09/16 11:28:05;;;;;;;2.63;2.40;;;22.10;99.90;;;;;;4956049;28;20035;-84
2023/09/16 11:30:34;;;;;;;3.53;3.22;;;22.20;99.90;;;;;;4972952;28;20101;-84
2023/09/16 11:32:59;;;;;;;4.15;3.58;;;22.20;99.90;;;;;;4973568;28;20043;-83
2023/09/16 11:35:26;;;;;;;5.90;3.20;;;22.20;99.90;;;;;;4974379;28;20053;-84
2023/09/16 11:37:53;;;;;;;6.55;3.80;;;22.20;99.90;;;;;;4971223;28;20062;-84
2023/09/16 11:40:24;;;;;;;4.20;2.95;;;22.40;99.90;;;;;;4973888;28;20476;-83
2023/09/16 11:42:50;;;;;;;5.32;3.80;;;22.50;99.90;;;;;;4971499;28;20050;-83
2023/09/16 11:45:17;;;;;;;4.43;3.25;;;22.50;99.90;;;;;;4972572;28;20431;-84
2023/09/16 11:47:43;;;;;;;5.80;4.07;;;22.60;99.90;;;;;;4974012;28;20023;-84
2023/09/16 11:50:22;;;;;;;6.20;4.05;;;22.60;99.90;;;;;;4973519;28;20034;-83
2023/09/16 11:52:48;;;;;;;5.07;3.07;;;22.70;99.90;;;;;;4973389;28;20029;-83
2023/09/16 11:55:15;;;;;;;4.18;2.70;;;22.70;99.90;;;;;;4975083;28;20369;-88
2023/09/16 11:57:41;;;;;;;4.50;2.97;;;22.80;99.90;;;;;;4976461;28;20038;-79
2023/09/16 12:00:10;;;;;;;5.82;2.58;;;22.90;99.90;;;;;;4971419;28;20026;-79
2023/09/16 12:02:38;;;;;;;2.72;2.45;;;23.00;99.90;;;;;;4972942;28;20031;-80
2023/09/16 12:05:04;;;;;;;3.55;2.58;;;23.10;99.90;;;;;;4980767;28;20042;-79
2023/09/16 12:07:35;;;;;;;2.90;2.63;;;23.20;99.90;;;;;;4974635;28;20022;-81
2023/09/16 12:10:05;;;;;;;4.43;2.83;;;23.20;99.90;;;;;;4962735;28;20039;-82
2023/09/16 12:12:30;;;;;;;5.00;2.75;;;23.20;99.90;;;;;;4957179;28;20034;-81
2023/09/16 12:14:56;;;;;;;3.28;3.00;;;23.20;99.90;;;;;;4961954;28;20042;-77
2023/09/16 12:17:25;;;;;;;3.58;2.75;;;23.20;99.90;;;;;;4953969;28;20042;-78
2023/09/16 12:19:52;;;;;;;5.43;3.28;;;23.10;99.90;;;;;;4960158;28;20035;-78
2023/09/16 12:22:18;;;;;;;7.90;2.80;;;23.10;99.90;;;;;;4968003;28;20052;-78
2023/09/16 12:24:45;;;;;;;2.63;2.30;;;23.20;99.90;;;;;;4968963;28;20480;-78
2023/09/16 12:27:11;;;;;;;2.70;2.45;;;23.10;99.90;;;;;;4973349;28;20038;-79
2023/09/16 12:29:37;;;;;;;3.30;2.65;;;23.20;99.90;;;;;;4961741;28;20550;-78